KMCE/MCE METAR and TAF weather

Enter ICAO airport designator
Station Type Date Time Source
KMCE METAR 2019/02/17 15:41 UTC NOAA

KMCE 171541Z AUTO 00000KT 2SM RA BR OVC020 04/03 A3006 RMK AO2 P0010 T00390033


Station Type Date Time Source
KMCE Decoded METAR 2019/02/17 15:41 UTC NOAA

MERCED MUNICIPAL AIRPORT, CA, United States (KMCE) 37-17N 120-30W 47M
Feb 17, 2019 - 10:41 AM EST / 2019.02.17 1541 UTC
Wind: Calm:0
Visibility: 2 mile(s):0
Sky conditions: overcast
Weather: rain; mist
Precipitation last hour: 0.10 inches
Temperature: 39.0 F (3.9 C)
Dew Point: 37.9 F (3.3 C)
Relative Humidity: 95%
Pressure (altimeter): 30.06 in. Hg (1017 hPa)
ob: KMCE 171541Z AUTO 00000KT 2SM RA BR OVC020 04/03 A3006 RMK AO2 P0010 T00390033
cycle: 15

Station Type Date Time Source
KMCE TAF 2019/02/17 12:42 UTC NOAA

TAF KMCE 171141Z 1712/1812 12005KT P6SM BKN120
FM171500 13010KT P6SM -SHRA BKN030
FM172100 31007KT P6SM VCSH BKN035
FM180200 32003KT P6SM SCT040


Example: see airport list